Latest Weather Observations for Cunderdin Airport

IDW60801

Issued at 3:33 am WST Monday 17 December 2018 (issued every 10 minutes, with the page automatically refreshed every 10 minutes)

About weather observations | Map of weather stations | Latest weather observations for WA | Other Formats
Station Details ID: 010286 Name: CUNDERDIN AIRFIELD Lat: -31.62 Lon: 117.22 Height: 216.7 m
Data from the previous 72 hours. | See also: Recent months at Cunderdin Airport
Date/Time
WST
Temp
°C
App
Temp
°C
Dew
Point
°C
Rel
Hum
%
Delta-T
°C
Wind Press
QNH
hPa
Press
MSL
hPa
Rain since
9am
mm
Dir  Spd
km/h
Gust
km/h
Spd
kts
Gust
kts
17/03:30am 15.6 10.3 12.5 82 1.7 SSE 32 46 17 25 1009.6 1008.5 0.0
17/03:27am 15.6 9.7 12.5 82 1.7 SSE 35 54 19 29 1009.4 1008.4 0.0
17/03:19am 15.6 10.3 12.4 81 1.8 SSE 32 54 17 29 1009.4 1008.4 0.0
17/03:00am 15.8 10.8 12.2 79 2.0 SSE 30 43 16 23 1009.6 1008.5 0.0
17/02:30am 16.2 10.5 11.8 75 2.4 SSE 33 44 18 24 1009.3 1008.3 0.0
17/02:12am 17.0 12.2 11.5 70 3.0 SSE 28 46 15 25 1009.1 1008.1 0.0
17/02:00am 16.9 12.4 11.4 70 3.0 SSE 26 43 14 23 1009.2 1008.2 0.0
17/01:51am 17.0 12.0 11.1 68 3.2 SSE 28 48 15 26 1009.2 1008.2 0.0
17/01:30am 17.1 12.7 10.5 65 3.6 SSE 24 37 13 20 1009.1 1008.1 0.0
17/01:00am 16.9 12.0 10.1 64 3.6 SSE 26 35 14 19 1009.4 1008.4 0.0
17/12:30am 16.8 11.5 9.7 63 3.8 S 28 35 15 19 1009.6 1008.5 0.0
17/12:00am 17.1 11.4 9.8 62 3.9 SSE 30 43 16 23 1009.7 1008.6 0.0
 
Date/Time
WST
Temp
°C
App
Temp
°C
Dew
Point
°C
Rel
Hum
%
Delta-T
°C
Wind Press
QNH
hPa
Press
MSL
hPa
Rain since
9am
mm
Dir  Spd
km/h
Gust
km/h
Spd
kts
Gust
kts
16/11:30pm 17.7 11.4 9.8 60 4.2 SSE 33 44 18 24 1009.7 1008.6 0.0
16/11:00pm 18.3 13.7 9.6 57 4.6 SSE 24 33 13 18 1009.3 1008.3 0.0
16/10:33pm 18.9 13.5 9.4 54 5.1 SE 28 46 15 25 1008.8 1007.8 0.0
16/10:30pm 18.9 13.0 9.1 53 5.2 SE 30 46 16 25 1008.7 1007.7 0.0
16/10:00pm 19.7 13.4 9.6 52 5.4 SSE 33 50 18 27 1008.1 1007.1 0.0
16/09:30pm 20.6 13.8 9.2 48 6.1 SSE 35 57 19 31 1007.7 1006.7 0.0
16/09:28pm 20.7 14.3 9.3 48 6.1 SSE 33 57 18 31 1007.7 1006.7 0.0
16/09:00pm 21.4 14.2 6.1 37 7.8 SSE 33 48 18 26 1007.2 1006.2 0.0
16/08:39pm 22.1 14.2 6.3 36 8.1 SE 37 56 20 30 1006.9 1005.9 0.0
16/08:30pm 22.4 14.4 5.8 34 8.4 SE 37 54 20 29 1006.6 1005.5 0.0
16/08:00pm 23.3 14.9 3.8 28 9.6 SSE 37 54 20 29 1005.6 1004.5 0.0
16/07:30pm 24.3 15.2 4.1 27 10.1 SSE 41 63 22 34 1004.9 1003.8 0.0
16/07:00pm 25.8 16.5 3.1 23 11.3 SSE 41 59 22 32 1004.1 1003.1 0.0
16/06:59pm 25.8 16.9 3.1 23 11.2 SSE 39 59 21 32 1004.1 1003.1 0.0
16/06:30pm 27.1 17.4 2.9 21 12.0 SSE 43 57 23 31 1003.5 1002.5 0.0
16/06:14pm 27.4 18.0 2.5 20 12.3 SSE 41 59 22 32 1003.2 1002.2 0.0
16/06:00pm 27.7 18.2 2.0 19 12.7 SSE 41 57 22 31 1003.0 1002.0 0.0
16/05:44pm 28.5 20.9 2.7 19 12.9 SSE 32 50 17 27 1002.7 1001.6 0.0
16/05:30pm 29.2 21.1 3.2 19 13.2 SSE 35 46 19 25 1002.5 1001.4 0.0
16/05:00pm 29.3 21.1 4.7 21 12.9 SSE 37 50 20 27 1002.3 1001.2 0.0
16/04:30pm 29.1 20.9 4.6 21 12.7 SSE 37 48 20 26 1002.1 1001.0 0.0
16/04:14pm 30.5 21.8 4.3 19 13.6 SSE 39 59 21 32 1001.9 1000.8 0.0
16/04:00pm 30.9 22.3 4.6 19 13.9 SSE 39 54 21 29 1001.8 1000.7 0.0
16/03:45pm 31.0 23.4 3.9 18 14.1 SSE 33 54 18 29 1001.8 1000.7 0.0
16/03:30pm 31.0 24.9 4.7 19 13.8 SE 26 35 14 19 1001.9 1000.8 0.0
16/03:00pm 30.9 26.0 6.7 22 13.2 SE 22 41 12 22 1002.0 1000.9 0.0
16/02:30pm 30.7 25.9 7.2 23 12.9 ESE 22 33 12 18 1002.3 1001.2 0.0
16/02:00pm 30.6 25.4 7.1 23 12.9 ESE 24 43 13 23 1002.4 1001.3 0.0
16/01:30pm 29.5 24.2 6.8 24 12.3 ESE 24 35 13 19 1002.6 1001.5 0.0
16/01:00pm 29.0 24.0 8.1 27 11.5 SE 24 37 13 20 1002.9 1001.9 0.0
16/12:30pm 28.7 23.7 7.9 27 11.4 ESE 24 37 13 20 1003.0 1002.0 0.0
16/12:00pm 27.8 22.4 8.1 29 10.8 ESE 26 43 14 23 1003.3 1002.3 0.0
16/11:30am 27.0 22.8 8.4 31 10.2 ESE 20 35 11 19 1003.6 1002.6 0.0
16/11:00am 25.7 21.6 8.7 34 9.3 ESE 20 35 11 19 1004.0 1003.0 0.0
16/10:30am 25.3 21.2 8.7 35 9.1 ESE 20 33 11 18 1004.3 1003.3 0.0
16/10:00am 24.6 19.7 8.5 36 8.7 ESE 24 35 13 19 1004.6 1003.6 0.0
16/09:46am 24.3 18.8 9.1 38 8.3 E 28 46 15 25 1004.6 1003.6 0.0
16/09:30am 23.9 18.7 8.7 38 8.2 ESE 26 37 14 20 1004.6 1003.6 0.0
16/09:00am 22.7 17.1 8.8 41 7.5 ESE 28 39 15 21 1004.9 1003.8 0.0
16/08:30am 21.9 15.4 9.1 44 6.9 ESE 33 46 18 25 1004.6 1003.6 0.0
16/08:14am 21.8 15.5 9.0 44 6.9 ESE 32 50 17 27 1004.4 1003.4 0.0
16/08:00am 21.2 15.2 8.8 45 6.6 ESE 30 43 16 23 1004.4 1003.4 0.0
16/07:34am 20.6 14.1 8.3 45 6.5 ESE 32 50 17 27 1004.5 1003.5 0.0
16/07:30am 20.9 14.5 8.5 45 6.6 ESE 32 48 17 26 1004.5 1003.5 0.0
16/07:00am 19.7 12.3 8.4 48 6.0 SE 37 50 20 27 1004.4 1003.4 0.0
16/06:49am 20.0 13.6 8.7 48 6.0 SE 32 50 17 27 1004.4 1003.4 0.0
16/06:30am 19.3 12.7 8.6 50 5.6 ESE 33 48 18 26 1004.3 1003.3 0.0
16/06:00am 18.6 12.3 8.8 53 5.2 SE 32 48 17 26 1004.0 1003.0 0.0
16/05:57am 18.6 12.6 8.8 53 5.2 SE 30 48 16 26 1004.0 1003.0 0.0
16/05:30am 17.8 13.2 6.7 48 5.6 SE 20 33 11 18 1003.7 1002.7 0.0
16/05:00am 17.4 12.9 4.0 41 6.4 SE 17 26 9 14 1003.1 1002.1 0.0
16/04:30am 17.6 12.5 3.1 38 6.8 SE 19 26 10 14 1002.6 1001.5 0.0
16/04:00am 17.8 12.1 2.9 37 7.0 SE 22 33 12 18 1002.2 1001.1 0.0
16/03:30am 18.2 11.7 2.9 36 7.1 SE 26 37 14 20 1002.1 1001.0 0.0
16/03:00am 18.6 11.1 3.3 36 7.3 SE 32 43 17 23 1002.3 1001.2 0.0
16/02:30am 18.9 12.3 4.3 38 7.0 SE 28 44 15 24 1002.3 1001.2 0.0
16/02:03am 19.2 12.4 4.9 39 7.0 SE 30 48 16 26 1002.5 1001.4 0.0
16/02:00am 19.3 12.1 5.0 39 7.1 SE 32 48 17 26 1002.5 1001.4 0.0
16/01:30am 19.6 13.4 6.0 41 6.8 SE 28 44 15 24 1002.8 1001.8 0.0
16/01:00am 19.9 13.6 7.6 45 6.4 SE 30 52 16 28 1003.0 1002.0 0.0
16/12:30am 20.4 13.7 8.1 45 6.5 SE 33 56 18 30 1003.3 1002.3 0.0
16/12:00am 21.1 15.0 8.4 44 6.8 SE 30 56 16 30 1003.4 1002.4 0.0
 
Date/Time
WST
Temp
°C
App
Temp
°C
Dew
Point
°C
Rel
Hum
%
Delta-T
°C
Wind Press
QNH
hPa
Press
MSL
hPa
Rain since
9am
mm
Dir  Spd
km/h
Gust
km/h
Spd
kts
Gust
kts
15/11:36pm 21.5 15.4 8.1 42 7.1 SE 30 48 16 26 1003.4 1002.4 0.0
15/11:30pm 21.8 15.3 8.3 42 7.2 SE 32 48 17 26 1003.3 1002.3 0.0
15/11:00pm 22.1 17.4 7.9 40 7.5 SE 22 35 12 19 1002.8 1001.8 0.0
15/10:30pm 22.3 16.7 7.3 38 7.8 SE 26 39 14 21 1002.8 1001.8 0.0
15/10:00pm 22.6 17.1 6.0 34 8.5 SE 24 33 13 18 1003.1 1002.1 0.0
15/09:30pm 23.3 18.1 5.7 32 9.0 SE 22 35 12 19 1003.0 1002.0 0.0
15/09:00pm 23.6 18.2 6.4 33 9.0 SE 24 35 13 19 1002.8 1001.8 0.0
15/08:30pm 23.4 17.5 7.5 36 8.4 SE 28 43 15 23 1002.6 1001.5 0.0
15/08:00pm 24.0 18.4 8.8 38 8.3 SE 28 50 15 27 1002.4 1001.3 0.0
15/07:30pm 25.2 18.1 9.5 37 8.7 SE 37 69 20 37 1002.2 1001.1 0.0
15/07:00pm 26.4 19.0 8.4 32 9.9 SE 37 61 20 33 1001.6 1000.5 0.0
15/06:43pm 27.1 20.5 8.5 31 10.2 SE 33 52 18 28 1001.1 1000.0 0.0
15/06:30pm 27.2 19.1 7.1 28 10.8 SE 39 54 21 29 1000.5 999.4 0.0
15/06:00pm 28.8 20.1 6.2 24 12.1 SE 41 59 22 32 1000.1 999.0 0.0
15/05:40pm 29.2 21.4 6.6 24 12.1 SE 37 56 20 30 999.6 998.6 0.0
15/05:30pm 29.5 21.2 6.2 23 12.5 SE 39 56 21 30 1000.2 999.1 0.0
15/05:02pm 30.6 23.4 5.8 21 13.2 SSE 33 54 18 29 1000.0 998.9 0.0
15/05:00pm 30.8 23.8 6.0 21 13.4 SSE 32 44 17 24 999.7 998.7 0.0
15/04:40pm 31.7 25.3 5.3 19 14.1 SSE 28 50 15 27 999.6 998.6 0.0
15/04:37pm 32.3 27.4 5.0 18 14.5 SSE 20 44 11 24 999.5 998.5 0.0
15/04:30pm 32.7 26.7 3.6 16 15.2 SW 24 35 13 19 999.3 998.3 0.0
15/04:00pm 34.0 29.3 0.6 12 16.8 WSW 15 24 8 13 998.4 997.3 0.0
15/03:30pm 36.1 33.7 -3.3 8 18.8 CALM 0 6 0 3 998.3 997.2 0.0
15/03:00pm 36.1 31.2 -3.3 8 18.9 N 13 20 7 11 998.8 997.8 0.0
15/02:30pm 36.3 32.6 -3.2 8 18.9 N 7 11 4 6 999.2 998.2 0.0
15/02:00pm 37.2 32.4 -2.5 8 19.4 N 13 20 7 11 999.7 998.7 0.0
15/01:30pm 37.3 31.2 -2.4 8 19.3 N 20 26 11 14 1000.3 999.2 0.0
15/01:00pm 36.4 29.8 -3.1 8 19.0 N 22 33 12 18 1000.8 999.7 0.0
15/12:30pm 37.0 29.7 -2.7 8 19.2 N 26 39 14 21 1001.1 1000.0 0.0
15/12:00pm 36.8 30.6 -2.8 8 19.2 NNE 20 28 11 15 1001.6 1000.5 0.0
15/11:30am 37.2 28.8 -2.5 8 19.3 NNE 32 41 17 22 1002.0 1000.9 0.0
15/11:00am 38.1 30.9 -1.9 8 19.8 NNE 26 39 14 21 1002.3 1001.2 0.0
15/10:30am 36.3 29.2 -1.6 9 18.6 NE 26 37 14 20 1002.7 1001.6 0.0
15/10:00am 36.3 28.4 -1.6 9 18.6 NE 30 39 16 21 1003.2 1002.2 0.0
15/09:30am 36.5 29.0 -1.4 9 18.7 NE 28 35 15 19 1003.6 1002.6 0.0
15/09:00am 34.5 27.4 -1.5 10 17.5 NE 26 35 14 19 1004.0 1003.0 0.0
15/08:30am 33.3 26.6 -1.1 11 16.7 NNE 24 30 13 16 1004.9 1003.8 0.0
15/08:00am 31.1 23.7 -0.5 13 15.3 NE 28 35 15 19 1005.2 1004.1 0.0
15/07:30am 28.9 22.8 0.6 16 13.7 NE 22 30 12 16 1005.5 1004.4 0.0
15/07:00am 27.9 23.7 1.4 18 13.0 ENE 13 20 7 11 1005.5 1004.4 0.0
15/06:30am 27.1 24.3 2.9 21 12.0 SE 7 9 4 5 1005.5 1004.4 0.0
15/06:00am 23.7 20.4 4.6 29 9.6 ENE 11 15 6 8 1005.0 1003.9 0.0
15/05:30am 23.3 19.9 6.1 33 8.8 ENE 13 17 7 9 1005.2 1004.1 0.0
15/05:00am 21.8 19.6 8.0 41 7.3 E 9 11 5 6 1005.2 1004.1 0.0
15/04:30am 22.3 20.3 8.8 42 7.3 E 9 11 5 6 1005.0 1003.9 0.0
15/04:00am 21.8 20.9 9.3 45 6.8 ESE 4 13 2 7 1005.2 1004.1 0.0
15/03:30am 22.1 18.8 6.3 36 8.1 WSW 13 20 7 11 1005.2 1004.1 0.0
15/03:00am 24.3 20.7 0.6 21 11.1 ESE 9 13 5 7 1004.3 1003.3 0.0
15/02:30am 24.4 20.8 0.7 21 11.1 ESE 9 11 5 6 1004.3 1003.3 0.0
15/02:00am 25.8 21.4 0.5 19 12.0 ESE 13 17 7 9 1004.3 1003.3 0.0
15/01:30am 25.1 21.6 1.3 21 11.3 ESE 9 13 5 7 1004.5 1003.5 0.0
15/01:00am 24.5 20.4 2.0 23 10.9 E 13 15 7 8 1004.4 1003.4 0.0
15/12:30am 24.6 21.0 2.7 24 10.7 E 11 17 6 9 1004.8 1003.7 0.0
15/12:00am 25.5 22.3 2.9 23 11.2 ESE 9 13 5 7 1005.0 1003.9 0.0
 
Date/Time
WST
Temp
°C
App
Temp
°C
Dew
Point
°C
Rel
Hum
%
Delta-T
°C
Wind Press
QNH
hPa
Press
MSL
hPa
Rain since
9am
mm
Dir  Spd
km/h
Gust
km/h
Spd
kts
Gust
kts
14/11:30pm 25.4 22.3 3.4 24 10.9 ESE 9 13 5 7 1005.4 1004.3 0.0
14/11:00pm 23.4 19.9 3.4 27 9.8 ENE 11 15 6 8 1005.9 1004.8 0.0
14/10:30pm 25.3 22.3 3.9 25 10.7 E 9 13 5 7 1006.1 1005.0 0.0
14/10:00pm 25.1 22.1 4.3 26 10.5 NE 9 11 5 6 1006.6 1005.5 0.0
14/09:30pm 25.1 21.8 4.3 26 10.5 ENE 11 11 6 6 1006.3 1005.2 0.0
14/09:00pm 26.0 22.6 3.9 24 11.1 E 11 13 6 7 1006.5 1005.4 0.0
14/08:30pm 26.7 23.7 3.9 23 11.5 ENE 9 11 5 6 1006.7 1005.6 0.0
14/08:00pm 30.8 27.0 3.8 18 14.0 E 13 17 7 9 1006.5 1005.4 0.0
14/07:30pm 32.1 27.8 3.1 16 14.9 E 15 19 8 10 1006.7 1005.6 0.0
14/07:00pm 33.7 28.9 2.5 14 16.1 E 17 26 9 14 1006.7 1005.6 0.0
14/06:30pm 34.9 29.5 2.4 13 16.8 E 20 30 11 16 1006.7 1005.6 0.0
14/06:00pm 35.8 30.3 2.0 12 17.5 E 20 28 11 15 1006.5 1005.4 0.0
14/05:30pm 36.5 31.7 2.5 12 17.8 NE 17 24 9 13 1006.5 1005.4 0.0
14/05:00pm 37.0 34.1 1.7 11 18.3 E 6 17 3 9 1006.6 1005.5 0.0
14/04:30pm 37.2 31.7 1.8 11 18.4 ENE 20 30 11 16 1006.8 1005.8 0.0
14/04:00pm 37.0 32.8 1.7 11 18.3 NE 13 20 7 11 1006.9 1005.9 0.0
14/03:30pm 37.0 32.8 1.7 11 18.3 ESE 13 20 7 11 1007.2 1006.2 0.0
14/03:00pm 37.2 31.9 1.8 11 18.4 SE 19 28 10 15 1007.5 1006.5 0.0
14/02:30pm 37.1 32.9 1.8 11 18.3 E 13 28 7 15 1007.9 1006.9 0.0
14/02:00pm 37.6 32.1 0.8 10 18.9 ENE 19 35 10 19 1008.4 1007.4 0.0
14/01:30pm 37.4 33.6 2.0 11 18.5 NNE 11 17 6 9 1008.9 1007.9 0.0
14/01:00pm 35.8 30.7 0.8 11 17.8 NE 17 26 9 14 1009.6 1008.5 0.0
14/12:30pm 36.3 33.2 1.2 11 18.0 NNE 7 26 4 14 1010.0 1008.9 0.0
14/12:00pm 37.0 32.1 1.7 11 18.3 NNE 17 32 9 17 1010.4 1009.3 0.0
14/11:30am 34.6 29.2 1.1 12 17.0 NE 19 30 10 16 1010.9 1009.9 0.0
14/11:00am 34.1 28.4 0.7 12 16.8 NE 20 32 11 17 1011.2 1010.2 0.0
14/10:30am 33.8 28.5 1.6 13 16.4 NNE 19 26 10 14 1011.5 1010.5 0.0
14/10:00am 32.2 26.8 1.3 14 15.5 NNE 19 30 10 16 1011.9 1010.9 0.0
14/09:30am 31.5 26.0 1.8 15 14.9 NNE 20 32 11 17 1012.3 1011.3 0.0
14/09:00am 29.7 24.1 1.2 16 14.0 NNE 20 33 11 18 1012.7 1011.7 0.0
14/08:30am 28.9 21.8 1.4 17 13.5 NNE 28 35 15 19 1012.8 1011.8 0.0
14/08:00am 27.7 20.2 1.2 18 12.8 NE 30 37 16 20 1012.7 1011.7 0.0
14/07:30am 26.6 18.8 1.8 20 12.1 NE 32 41 17 22 1013.0 1012.0 0.0
14/07:00am 25.8 18.4 1.8 21 11.6 NE 30 43 16 23 1012.9 1011.9 0.0
14/06:30am 24.5 18.9 1.4 22 11.0 NE 20 26 11 14 1012.7 1011.7 0.0
14/06:00am 22.9 17.9 1.3 24 10.1 ENE 17 24 9 13 1012.3 1011.3 0.0
14/05:30am 21.7 16.6 0.8 25 9.6 ENE 17 22 9 12 1012.1 1011.1 0.0
14/05:00am 21.0 15.8 0.2 25 9.4 ENE 17 20 9 11 1011.9 1010.9 0.0
14/04:30am 22.0 15.8 -0.1 23 10.0 ENE 22 26 12 14 1011.6 1010.6 0.0
14/04:00am 22.5 15.5 -0.3 22 10.3 ENE 26 35 14 19 1011.6 1010.6 0.0

Other Formats:

Comma delimited format used in spreadsheet applications
http://www.bom.gov.au/fwo/IDW60801/IDW60801.95625.axf

JavaScript Object Notation format (JSON) in row-major order
http://www.bom.gov.au/fwo/IDW60801/IDW60801.95625.json